Time;durP1;ratioP1;P1;durP2;ratioP2;P2;SDS_P1;SDS_P2;PMS_P1;PMS_P2;Temp;Humidity;BMP_temperature;BMP_pressure;BME280_temperature;BME280_humidity;BME280_pressure;Samples;Min_cycle;Max_cycle;Signal;HPM_P1;HPM_P2
2021/09/10 00:00:33;;;;;;;5.30;2.20;;;29.90;87.10;;;;;;5043854;28;20037;-51
2021/09/10 00:03:00;;;;;;;16.63;2.45;;;29.90;87.00;;;;;;5043466;28;20025;-51
2021/09/10 00:05:27;;;;;;;5.60;2.00;;;29.80;87.30;;;;;;5043231;28;20080;-56
2021/09/10 00:07:53;;;;;;;10.30;2.33;;;29.80;87.40;;;;;;5043468;28;20080;-55
2021/09/10 00:10:20;;;;;;;5.47;1.63;;;29.80;87.40;;;;;;5042717;28;20206;-57
2021/09/10 00:12:47;;;;;;;7.65;2.17;;;29.80;87.40;;;;;;5043320;28;20028;-55
2021/09/10 00:15:13;;;;;;;6.25;1.83;;;29.80;87.40;;;;;;5043347;28;20017;-54
2021/09/10 00:17:40;;;;;;;7.15;2.00;;;29.80;87.30;;;;;;5044195;28;20029;-54
2021/09/10 00:20:07;;;;;;;5.05;1.80;;;29.70;87.10;;;;;;5042842;28;20019;-53
2021/09/10 00:22:33;;;;;;;6.40;1.90;;;29.70;87.40;;;;;;5043958;28;20028;-53
2021/09/10 00:25:00;;;;;;;7.88;1.88;;;29.70;87.30;;;;;;5043457;28;20025;-51
2021/09/10 00:27:26;;;;;;;7.50;2.10;;;29.70;86.90;;;;;;5043833;28;20044;-55
2021/09/10 00:29:53;;;;;;;7.90;1.92;;;29.70;86.80;;;;;;5043259;28;20041;-54
2021/09/10 00:32:20;;;;;;;5.75;2.08;;;29.70;86.70;;;;;;5043727;28;20032;-46
2021/09/10 00:34:46;;;;;;;5.53;2.08;;;29.70;86.50;;;;;;5043766;28;20021;-53
2021/09/10 00:37:13;;;;;;;8.18;2.17;;;29.70;86.50;;;;;;5043955;28;20030;-50
2021/09/10 00:39:40;;;;;;;4.57;1.85;;;29.60;86.00;;;;;;5047261;28;20014;-56
2021/09/10 00:42:07;;;;;;;10.98;2.15;;;29.60;86.10;;;;;;5047295;28;20029;-52
2021/09/10 00:44:34;;;;;;;12.45;3.63;;;29.60;85.90;;;;;;5047082;28;20017;-56
2021/09/10 00:47:00;;;;;;;10.13;3.35;;;29.60;86.00;;;;;;5047229;28;20225;-52
2021/09/10 00:49:27;;;;;;;8.25;2.83;;;29.60;86.00;;;;;;5046889;28;20021;-54
2021/09/10 00:51:54;;;;;;;7.55;2.30;;;29.60;86.00;;;;;;5047515;28;20033;-52
2021/09/10 00:54:21;;;;;;;5.50;2.50;;;29.60;85.90;;;;;;5045681;28;20209;-54
2021/09/10 00:56:47;;;;;;;6.30;2.65;;;29.50;85.70;;;;;;5047122;28;20036;-48
2021/09/10 00:59:14;;;;;;;4.93;2.50;;;29.50;85.60;;;;;;5046699;28;20043;-50
2021/09/10 01:01:42;;;;;;;8.20;2.35;;;29.50;85.80;;;;;;5046608;28;20036;-51
2021/09/10 01:04:09;;;;;;;6.05;1.95;;;29.50;86.30;;;;;;5046556;28;20340;-52
2021/09/10 01:06:37;;;;;;;2.60;1.52;;;29.40;85.80;;;;;;5046314;28;20296;-51
2021/09/10 01:09:07;;;;;;;7.13;1.83;;;29.40;85.70;;;;;;5046415;28;20225;-53
2021/09/10 01:11:34;;;;;;;12.00;2.25;;;29.40;85.70;;;;;;5046878;28;20201;-47
2021/09/10 01:14:01;;;;;;;7.55;1.85;;;29.40;85.60;;;;;;5046509;28;20017;-49
2021/09/10 01:16:28;;;;;;;5.25;2.33;;;29.40;85.10;;;;;;5046796;28;20041;-53
2021/09/10 01:18:55;;;;;;;7.88;3.38;;;29.40;85.20;;;;;;5046839;28;20040;-52
2021/09/10 01:21:23;;;;;;;5.18;2.30;;;29.40;85.50;;;;;;5046658;28;20025;-53
2021/09/10 01:23:49;;;;;;;9.60;2.40;;;29.40;85.30;;;;;;5046275;28;20024;-49
2021/09/10 01:26:16;;;;;;;5.30;3.30;;;29.30;85.40;;;;;;5046432;28;20030;-52
2021/09/10 01:28:43;;;;;;;10.45;3.20;;;29.30;85.40;;;;;;5046329;28;20028;-48
2021/09/10 01:31:10;;;;;;;12.27;3.30;;;29.30;85.80;;;;;;5044890;28;20195;-52
2021/09/10 01:33:37;;;;;;;12.40;3.10;;;29.20;85.60;;;;;;5046270;28;20040;-52
2021/09/10 01:36:04;;;;;;;9.95;2.42;;;29.20;85.60;;;;;;5046144;28;20026;-54
2021/09/10 01:38:31;;;;;;;9.20;3.15;;;29.20;85.40;;;;;;5045883;28;20302;-51
2021/09/10 01:40:58;;;;;;;7.88;3.58;;;29.20;85.50;;;;;;5046024;28;20035;-54
2021/09/10 01:43:24;;;;;;;14.45;3.53;;;29.20;85.80;;;;;;5045916;28;20025;-53
2021/09/10 01:45:51;;;;;;;8.02;3.03;;;29.20;85.90;;;;;;5045996;28;20051;-52
2021/09/10 01:48:18;;;;;;;10.98;3.15;;;29.20;86.10;;;;;;5045949;28;20043;-52
2021/09/10 01:50:45;;;;;;;8.95;3.17;;;29.20;86.30;;;;;;5045785;28;20055;-54
2021/09/10 01:53:12;;;;;;;11.75;2.80;;;29.20;86.90;;;;;;5045670;28;20029;-50
2021/09/10 01:55:39;;;;;;;8.90;3.03;;;29.20;87.00;;;;;;5045839;28;20017;-50
2021/09/10 01:58:05;;;;;;;8.40;2.70;;;29.20;87.20;;;;;;5044553;28;20071;-58
2021/09/10 02:00:32;;;;;;;5.75;2.70;;;29.20;87.40;;;;;;5045787;28;20023;-53
2021/09/10 02:02:59;;;;;;;10.00;3.20;;;29.20;87.50;;;;;;5043524;28;20037;-52
2021/09/10 02:05:26;;;;;;;10.85;4.15;;;29.20;87.80;;;;;;5045240;28;20024;-49
2021/09/10 02:07:53;;;;;;;10.18;5.07;;;29.20;88.10;;;;;;5045040;28;20076;-57
2021/09/10 02:10:20;;;;;;;16.10;5.05;;;29.10;88.00;;;;;;5045601;28;20209;-51
2021/09/10 02:12:47;;;;;;;11.13;5.32;;;29.20;88.30;;;;;;5045874;28;20053;-51
2021/09/10 02:15:14;;;;;;;10.15;4.38;;;29.10;88.40;;;;;;5045084;28;20198;-47
2021/09/10 02:17:41;;;;;;;12.90;4.38;;;29.10;88.50;;;;;;5045695;28;20025;-51
2021/09/10 02:20:10;;;;;;;10.85;4.78;;;29.10;88.50;;;;;;5045139;28;20024;-52
2021/09/10 02:22:37;;;;;;;6.80;3.97;;;29.10;88.50;;;;;;5045432;28;20032;-53
2021/09/10 02:25:04;;;;;;;8.02;3.67;;;29.10;88.50;;;;;;5045171;28;20013;-49
2021/09/10 02:27:31;;;;;;;10.68;3.22;;;29.10;88.60;;;;;;5045663;28;20305;-54
2021/09/10 02:29:58;;;;;;;6.47;2.78;;;29.00;88.70;;;;;;5044178;28;20313;-49
2021/09/10 02:32:25;;;;;;;14.43;3.33;;;29.00;88.60;;;;;;5045283;28;20293;-50
2021/09/10 02:34:51;;;;;;;6.63;2.50;;;29.00;88.70;;;;;;5044717;28;20018;-48
2021/09/10 02:37:18;;;;;;;4.82;2.40;;;29.10;88.70;;;;;;5045006;28;20310;-56
2021/09/10 02:39:48;;;;;;;6.47;2.92;;;29.00;88.60;;;;;;5044691;28;20021;-53
2021/09/10 02:42:15;;;;;;;10.32;4.22;;;29.00;88.80;;;;;;5045029;28;20212;-52
2021/09/10 02:44:41;;;;;;;10.75;3.83;;;29.00;88.70;;;;;;5044865;28;20052;-54
2021/09/10 02:47:08;;;;;;;6.80;3.92;;;28.90;88.70;;;;;;5045012;28;20111;-53
2021/09/10 02:49:35;;;;;;;11.77;4.30;;;29.00;88.70;;;;;;5044963;28;20064;-48
2021/09/10 02:52:03;;;;;;;9.45;4.65;;;28.90;88.50;;;;;;5044951;28;20025;-57
2021/09/10 02:54:30;;;;;;;12.10;5.22;;;28.90;88.60;;;;;;5044927;28;20170;-51
2021/09/10 02:56:57;;;;;;;6.95;4.00;;;28.90;88.60;;;;;;5045217;28;20143;-53
2021/09/10 02:59:24;;;;;;;8.95;3.67;;;28.90;88.60;;;;;;5044325;28;20013;-53
2021/09/10 03:01:50;;;;;;;7.90;3.58;;;28.90;88.70;;;;;;5044363;28;20254;-51
2021/09/10 03:04:17;;;;;;;12.60;6.07;;;28.90;89.00;;;;;;5044630;28;20084;-60
2021/09/10 03:06:43;;;;;;;20.33;11.32;;;28.80;88.90;;;;;;5044026;28;20049;-49
2021/09/10 03:09:10;;;;;;;22.40;14.05;;;28.80;88.70;;;;;;5044490;28;20040;-52
2021/09/10 03:11:37;;;;;;;23.60;15.18;;;28.80;88.60;;;;;;5044523;28;20097;-53
2021/09/10 03:14:04;;;;;;;22.48;12.73;;;28.80;88.40;;;;;;5044221;28;20031;-47
2021/09/10 03:16:31;;;;;;;19.83;11.63;;;28.80;88.20;;;;;;5044668;28;20022;-55
2021/09/10 03:18:58;;;;;;;21.80;10.20;;;28.80;88.20;;;;;;5044207;28;20325;-53
2021/09/10 03:21:25;;;;;;;17.45;10.32;;;28.70;88.20;;;;;;5044426;28;20135;-53
2021/09/10 03:23:52;;;;;;;21.38;9.70;;;28.70;88.00;;;;;;5044156;28;20036;-54
2021/09/10 03:26:19;;;;;;;18.02;10.55;;;28.70;88.00;;;;;;5044542;28;20025;-50
2021/09/10 03:28:45;;;;;;;17.30;10.02;;;28.70;88.00;;;;;;5044233;28;20075;-49
2021/09/10 03:31:12;;;;;;;16.38;9.55;;;28.70;87.90;;;;;;5044096;28;20032;-47
2021/09/10 03:33:38;;;;;;;14.98;7.75;;;28.70;87.70;;;;;;5043959;28;20060;-48
2021/09/10 03:36:05;;;;;;;15.65;7.70;;;28.70;87.70;;;;;;5044347;28;20017;-48
2021/09/10 03:38:32;;;;;;;14.25;5.70;;;28.70;87.70;;;;;;5043753;28;20028;-51
2021/09/10 03:40:58;;;;;;;8.30;5.07;;;28.70;87.50;;;;;;5044044;28;20032;-51
2021/09/10 03:43:25;;;;;;;10.77;4.40;;;28.70;87.40;;;;;;5043752;28;20056;-48
2021/09/10 03:45:51;;;;;;;9.65;4.07;;;28.70;87.30;;;;;;5043798;28;20070;-53
2021/09/10 03:48:18;;;;;;;6.85;3.75;;;28.70;87.30;;;;;;5043701;28;20297;-50
2021/09/10 03:50:45;;;;;;;6.90;3.63;;;28.60;87.30;;;;;;5043772;28;20025;-52
2021/09/10 03:53:11;;;;;;;7.15;3.05;;;28.60;87.20;;;;;;5043677;28;20052;-48
2021/09/10 03:55:38;;;;;;;6.07;2.70;;;28.60;87.00;;;;;;5043672;28;20024;-48
2021/09/10 03:58:04;;;;;;;7.60;3.92;;;28.60;87.00;;;;;;5043624;28;20027;-48
2021/09/10 04:00:31;;;;;;;6.40;4.35;;;28.60;87.00;;;;;;5043630;28;20028;-49
2021/09/10 04:03:03;;;;;;;7.85;4.68;;;28.60;87.00;;;;;;5043543;28;20033;-53
2021/09/10 04:05:30;;;;;;;9.87;5.77;;;28.60;86.90;;;;;;5043443;28;20020;-52
2021/09/10 04:07:56;;;;;;;7.47;4.15;;;28.60;86.90;;;;;;5043270;28;20045;-54
2021/09/10 04:10:23;;;;;;;9.55;4.68;;;28.60;86.80;;;;;;5043421;28;20017;-60
2021/09/10 04:12:49;;;;;;;12.60;7.78;;;28.60;86.80;;;;;;5044278;28;20028;-49
2021/09/10 04:15:16;;;;;;;17.63;9.65;;;28.50;86.90;;;;;;5047587;28;20093;-54
2021/09/10 04:17:42;;;;;;;12.75;9.25;;;28.50;87.00;;;;;;5047929;28;20022;-53
2021/09/10 04:20:12;;;;;;;11.13;7.40;;;28.50;87.10;;;;;;5047389;28;20010;-53
2021/09/10 04:22:39;;;;;;;9.65;6.97;;;28.50;87.10;;;;;;5047628;28;20029;-59
2021/09/10 04:25:06;;;;;;;8.77;6.05;;;28.50;87.30;;;;;;5047362;28;20013;-55
2021/09/10 04:27:33;;;;;;;9.65;5.93;;;28.50;87.30;;;;;;5047762;28;20202;-53
2021/09/10 04:30:00;;;;;;;20.17;4.93;;;28.50;87.20;;;;;;5047068;28;20021;-52
2021/09/10 04:32:26;;;;;;;8.20;4.20;;;28.50;87.20;;;;;;5047640;28;20201;-53
2021/09/10 04:34:53;;;;;;;3.53;2.95;;;28.50;87.10;;;;;;5047493;28;20013;-54
2021/09/10 04:37:20;;;;;;;5.70;3.00;;;28.40;87.10;;;;;;5047745;28;20085;-53
2021/09/10 04:39:46;;;;;;;5.53;2.72;;;28.40;87.20;;;;;;5047204;28;20025;-59
2021/09/10 04:42:13;;;;;;;4.90;2.30;;;28.40;87.30;;;;;;5047551;28;20029;-55
2021/09/10 04:44:39;;;;;;;5.70;2.22;;;28.40;87.20;;;;;;5046832;28;20213;-58
2021/09/10 04:47:06;;;;;;;7.13;2.38;;;28.40;87.40;;;;;;5047050;28;20036;-56
2021/09/10 04:49:33;;;;;;;5.10;2.05;;;28.40;87.40;;;;;;5046719;28;20017;-57
2021/09/10 04:51:59;;;;;;;6.00;1.75;;;28.40;87.40;;;;;;5047079;28;20302;-53
2021/09/10 04:54:26;;;;;;;5.97;1.88;;;28.40;87.30;;;;;;5047105;28;20088;-49
2021/09/10 04:56:53;;;;;;;8.07;2.08;;;28.40;87.40;;;;;;5047496;28;20269;-51
2021/09/10 04:59:19;;;;;;;5.25;2.22;;;28.40;87.40;;;;;;5046900;28;20017;-50
2021/09/10 05:01:47;;;;;;;7.95;2.97;;;28.40;87.50;;;;;;5046924;28;20029;-50
2021/09/10 05:04:14;;;;;;;10.98;2.90;;;28.40;87.70;;;;;;5046490;28;20067;-57
2021/09/10 05:06:40;;;;;;;7.10;2.72;;;28.40;87.90;;;;;;5046248;28;20053;-54
2021/09/10 05:09:07;;;;;;;6.35;2.15;;;28.40;87.80;;;;;;5046513;28;20013;-56
2021/09/10 05:11:33;;;;;;;7.47;2.67;;;28.30;87.80;;;;;;5046519;28;20026;-54
2021/09/10 05:14:00;;;;;;;4.72;1.88;;;28.30;88.00;;;;;;5046701;28;20010;-53
2021/09/10 05:16:27;;;;;;;5.75;2.00;;;28.30;88.00;;;;;;5046801;28;20033;-57
2021/09/10 05:18:53;;;;;;;3.33;1.80;;;28.30;88.10;;;;;;5046144;28;20249;-49
2021/09/10 05:21:20;;;;;;;6.13;2.10;;;28.30;88.10;;;;;;5045779;28;20368;-51
2021/09/10 05:23:46;;;;;;;4.38;1.80;;;28.30;88.10;;;;;;5045638;28;20028;-49
2021/09/10 05:26:13;;;;;;;4.82;1.70;;;28.30;88.00;;;;;;5046000;28;20033;-55
2021/09/10 05:28:40;;;;;;;5.13;1.73;;;28.30;88.10;;;;;;5045775;28;20198;-51
2021/09/10 05:31:07;;;;;;;8.05;1.70;;;28.30;88.00;;;;;;5045815;28;20029;-50
2021/09/10 05:33:34;;;;;;;6.35;1.67;;;28.20;88.00;;;;;;5045862;28;20206;-48
2021/09/10 05:36:00;;;;;;;2.30;1.50;;;28.20;87.90;;;;;;5046128;28;20029;-48
2021/09/10 05:38:27;;;;;;;4.75;1.80;;;28.20;87.80;;;;;;5045996;28;20014;-53
2021/09/10 05:40:53;;;;;;;5.93;1.50;;;28.30;88.00;;;;;;5046147;28;20205;-51
2021/09/10 05:43:20;;;;;;;3.72;1.45;;;28.20;87.80;;;;;;5045542;28;20032;-52
2021/09/10 05:45:47;;;;;;;4.07;1.40;;;28.30;87.80;;;;;;5045430;28;20021;-54
2021/09/10 05:48:18;;;;;;;4.18;1.60;;;28.20;87.60;;;;;;5045601;28;20051;-53
2021/09/10 05:50:49;;;;;;;5.05;1.55;;;28.20;87.10;;;;;;5045410;28;20296;-60
2021/09/10 05:53:17;;;;;;;5.35;1.40;;;28.20;87.00;;;;;;5045421;28;20070;-51
2021/09/10 05:55:44;;;;;;;4.10;1.55;;;28.20;86.80;;;;;;5045234;28;20037;-51
2021/09/10 05:58:11;;;;;;;3.90;1.40;;;28.20;86.70;;;;;;5045354;28;20072;-52
2021/09/10 06:00:39;;;;;;;2.78;1.40;;;28.20;86.60;;;;;;5045426;28;20086;-48
2021/09/10 06:03:06;;;;;;;2.08;1.48;;;28.20;86.30;;;;;;5045405;28;20029;-48
2021/09/10 06:05:33;;;;;;;5.28;1.50;;;28.20;86.20;;;;;;5045038;28;20081;-46
2021/09/10 06:08:00;;;;;;;5.80;1.40;;;28.20;86.40;;;;;;5045007;28;20073;-48
2021/09/10 06:10:27;;;;;;;5.78;1.88;;;28.10;86.00;;;;;;5044822;28;20088;-50
2021/09/10 06:12:54;;;;;;;4.32;1.60;;;28.10;85.90;;;;;;5044812;28;20021;-57
2021/09/10 06:15:20;;;;;;;6.80;1.55;;;28.10;85.80;;;;;;5045432;28;20024;-54
2021/09/10 06:17:47;;;;;;;2.45;1.23;;;28.10;85.80;;;;;;5046027;28;20021;-55
2021/09/10 06:20:14;;;;;;;3.22;1.38;;;28.20;85.80;;;;;;5044973;28;20017;-54
2021/09/10 06:22:41;;;;;;;1.23;1.00;;;28.10;85.80;;;;;;5045334;28;20025;-53
2021/09/10 06:25:09;;;;;;;5.20;1.70;;;28.20;86.00;;;;;;5045372;28;20301;-49
2021/09/10 06:27:38;;;;;;;2.90;1.25;;;28.20;85.90;;;;;;5045979;28;20029;-49
2021/09/10 06:30:06;;;;;;;2.55;1.50;;;28.10;85.90;;;;;;5044870;28;20021;-52
2021/09/10 06:32:33;;;;;;;4.30;1.20;;;28.10;86.00;;;;;;5045536;28;20056;-51
2021/09/10 06:35:00;;;;;;;4.10;1.42;;;28.10;85.90;;;;;;5044890;28;20044;-52
2021/09/10 06:37:27;;;;;;;4.90;1.65;;;28.10;86.10;;;;;;5044914;28;20085;-51
2021/09/10 06:39:54;;;;;;;3.90;1.20;;;28.10;86.10;;;;;;5044690;28;20031;-50
2021/09/10 06:42:20;;;;;;;3.88;1.58;;;28.10;86.10;;;;;;5045367;28;20036;-54
2021/09/10 06:44:50;;;;;;;2.33;1.40;;;28.10;86.10;;;;;;5044494;28;20028;-48
2021/09/10 06:47:18;;;;;;;2.25;1.33;;;28.10;86.00;;;;;;5044934;28;20032;-52
2021/09/10 06:49:45;;;;;;;5.38;1.60;;;28.10;86.00;;;;;;5045023;28;20021;-49
2021/09/10 06:52:12;;;;;;;5.70;1.67;;;28.00;86.30;;;;;;5045134;28;20030;-49
2021/09/10 06:54:38;;;;;;;6.90;2.40;;;28.00;87.00;;;;;;5044798;28;20017;-48
2021/09/10 06:57:05;;;;;;;17.90;3.90;;;28.00;88.80;;;;;;5045034;28;20348;-51
2021/09/10 06:59:31;;;;;;;22.77;5.85;;;27.90;89.10;;;;;;5044494;28;20055;-51
2021/09/10 07:01:58;;;;;;;24.73;4.53;;;27.90;90.40;;;;;;5044856;28;20187;-59
2021/09/10 07:04:25;;;;;;;17.75;3.83;;;27.90;90.20;;;;;;5044274;28;20025;-56
2021/09/10 07:06:51;;;;;;;9.77;3.10;;;27.90;90.20;;;;;;5044033;28;20409;-52
2021/09/10 07:09:18;;;;;;;9.35;2.80;;;27.90;90.30;;;;;;5044766;28;20368;-50
2021/09/10 07:11:44;;;;;;;11.98;2.95;;;27.90;90.60;;;;;;5044709;28;20037;-54
2021/09/10 07:14:11;;;;;;;12.65;2.55;;;27.80;90.80;;;;;;5044286;28;20024;-49
2021/09/10 07:16:38;;;;;;;10.57;2.83;;;27.90;90.90;;;;;;5044437;28;20048;-48
2021/09/10 07:19:04;;;;;;;6.00;2.17;;;27.90;90.80;;;;;;5044256;28;20025;-57
2021/09/10 07:21:31;;;;;;;9.43;2.42;;;27.90;90.80;;;;;;5044267;28;20031;-52
2021/09/10 07:23:57;;;;;;;8.18;2.40;;;27.80;90.70;;;;;;5044468;28;20021;-49
2021/09/10 07:26:25;;;;;;;7.80;2.20;;;27.90;90.80;;;;;;5044835;28;20064;-51
2021/09/10 07:28:51;;;;;;;6.75;2.13;;;27.80;90.80;;;;;;5043843;28;20140;-51
2021/09/10 07:31:18;;;;;;;8.60;2.22;;;27.80;90.90;;;;;;5044082;28;20047;-48
2021/09/10 07:33:45;;;;;;;7.47;1.95;;;27.80;91.00;;;;;;5044179;28;20036;-51
2021/09/10 07:36:11;;;;;;;8.23;2.10;;;27.70;90.90;;;;;;5044033;28;20048;-48
2021/09/10 07:38:38;;;;;;;6.80;2.10;;;27.70;90.80;;;;;;5044099;28;20064;-50
2021/09/10 07:41:05;;;;;;;5.13;1.60;;;27.70;90.80;;;;;;5044286;28;20355;-50
2021/09/10 07:43:33;;;;;;;5.38;1.83;;;27.70;90.80;;;;;;5043692;28;20027;-50
2021/09/10 07:45:59;;;;;;;4.70;1.63;;;27.70;90.80;;;;;;5044069;28;20035;-51
2021/09/10 07:48:26;;;;;;;3.72;1.63;;;27.70;90.80;;;;;;5047843;28;20059;-56
2021/09/10 07:50:53;;;;;;;5.25;1.40;;;27.70;90.80;;;;;;5047816;28;20038;-53
2021/09/10 07:53:19;;;;;;;4.72;1.65;;;27.70;90.90;;;;;;5048054;28;20017;-51
2021/09/10 07:55:46;;;;;;;8.75;1.73;;;27.60;90.90;;;;;;5047791;28;20025;-48
2021/09/10 07:58:13;;;;;;;8.90;2.03;;;27.50;91.20;;;;;;5048103;28;20245;-53
2021/09/10 08:00:41;;;;;;;5.68;2.20;;;27.50;91.30;;;;;;5047807;28;20029;-49
2021/09/10 08:03:09;;;;;;;3.42;1.58;;;27.50;91.40;;;;;;5048069;28;20324;-49
2021/09/10 08:05:37;;;;;;;2.92;1.42;;;27.50;91.30;;;;;;5047360;28;20028;-54
2021/09/10 08:08:04;;;;;;;4.97;1.65;;;27.40;91.20;;;;;;5047738;28;20099;-51
2021/09/10 08:10:30;;;;;;;7.50;2.00;;;27.40;91.10;;;;;;5047591;28;20048;-53
2021/09/10 08:12:57;;;;;;;8.68;2.53;;;27.40;91.10;;;;;;5047815;28;20302;-51
2021/09/10 08:15:24;;;;;;;11.00;3.30;;;27.30;91.30;;;;;;5047478;28;20044;-48
2021/09/10 08:17:50;;;;;;;14.77;3.72;;;27.30;91.50;;;;;;5047326;28;20040;-48
2021/09/10 08:20:17;;;;;;;12.77;4.35;;;27.30;91.50;;;;;;5047243;28;20025;-51
2021/09/10 08:22:46;;;;;;;11.23;3.35;;;27.30;91.60;;;;;;5047851;28;20332;-47
2021/09/10 08:25:13;;;;;;;10.00;2.80;;;27.30;91.50;;;;;;5047182;28;20266;-48
2021/09/10 08:27:41;;;;;;;9.18;2.53;;;27.20;91.50;;;;;;5047455;28;20088;-53
2021/09/10 08:30:09;;;;;;;9.13;2.30;;;27.20;91.50;;;;;;5047334;28;20021;-52
2021/09/10 08:32:36;;;;;;;5.25;1.70;;;27.20;91.30;;;;;;5047667;28;20048;-53
2021/09/10 08:35:03;;;;;;;5.10;1.55;;;27.10;91.40;;;;;;5047424;28;20301;-52
2021/09/10 08:37:29;;;;;;;3.92;1.55;;;27.10;91.50;;;;;;5048090;28;20035;-51
2021/09/10 08:39:56;;;;;;;6.82;1.48;;;27.10;91.30;;;;;;5047061;28;20013;-48
2021/09/10 08:42:24;;;;;;;5.43;1.55;;;27.10;91.30;;;;;;5047386;28;20033;-58
2021/09/10 08:44:51;;;;;;;4.25;1.00;;;27.10;91.40;;;;;;5046940;28;20269;-48
2021/09/10 08:47:18;;;;;;;3.22;1.20;;;27.10;91.30;;;;;;5047344;28;20033;-50
2021/09/10 08:49:45;;;;;;;3.45;0.82;;;27.10;91.30;;;;;;5047040;28;20046;-57
2021/09/10 08:52:14;;;;;;;5.25;1.35;;;27.00;91.30;;;;;;5047413;28;20033;-53
2021/09/10 08:54:40;;;;;;;1.98;1.13;;;26.90;91.30;;;;;;5046943;28;20017;-48
2021/09/10 08:57:07;;;;;;;2.58;1.00;;;26.90;91.40;;;;;;5047198;28;20093;-49
2021/09/10 08:59:34;;;;;;;2.10;1.00;;;26.90;91.40;;;;;;5046143;28;20030;-50
2021/09/10 09:02:01;;;;;;;3.40;1.30;;;26.90;91.40;;;;;;5046842;28;20071;-49
2021/09/10 09:04:45;;;;;;;3.38;0.90;;;26.90;91.40;;;;;;5046495;28;20027;-56
2021/09/10 09:07:11;;;;;;;2.60;1.10;;;26.90;91.30;;;;;;5046508;28;20053;-55
2021/09/10 09:09:47;;;;;;;1.60;0.98;;;26.90;91.40;;;;;;5046455;28;20025;-55
2021/09/10 09:12:15;;;;;;;2.95;1.20;;;26.80;91.40;;;;;;5047025;28;20048;-54
2021/09/10 09:14:56;;;;;;;3.88;1.00;;;26.80;91.50;;;;;;5046710;28;20032;-52
2021/09/10 09:17:32;;;;;;;1.85;0.70;;;26.80;91.40;;;;;;5046621;28;20206;-50
2021/09/10 09:20:21;;;;;;;4.55;1.05;;;26.80;91.40;;;;;;5046367;28;20032;-47
2021/09/10 09:23:06;;;;;;;3.47;0.88;;;26.80;91.50;;;;;;5046351;28;20026;-49
2021/09/10 09:25:41;;;;;;;2.70;0.63;;;26.80;91.50;;;;;;5046404;28;20020;-53
2021/09/10 09:28:24;;;;;;;2.13;0.90;;;26.70;91.50;;;;;;5046810;28;20289;-54
2021/09/10 09:30:56;;;;;;;2.95;0.82;;;26.70;91.60;;;;;;5046436;28;20368;-56
2021/09/10 09:33:38;;;;;;;1.83;0.60;;;26.60;91.60;;;;;;5046351;28;20021;-50
2021/09/10 09:36:08;;;;;;;1.93;0.60;;;26.60;91.60;;;;;;5046279;28;20091;-48
2021/09/10 09:38:37;;;;;;;2.25;0.50;;;26.70;91.50;;;;;;5045898;28;20018;-48
2021/09/10 09:41:05;;;;;;;3.38;0.82;;;26.60;91.40;;;;;;5046075;28;20029;-52
2021/09/10 09:43:34;;;;;;;2.40;0.60;;;26.70;91.60;;;;;;5046200;28;20067;-49
2021/09/10 09:46:05;;;;;;;0.93;0.40;;;26.70;91.30;;;;;;5046101;28;20025;-53
2021/09/10 09:48:36;;;;;;;2.55;0.50;;;26.80;91.30;;;;;;5046474;28;20027;-55
2021/09/10 09:51:04;;;;;;;1.30;0.57;;;26.80;91.40;;;;;;5045969;28;20033;-52
2021/09/10 09:53:31;;;;;;;2.50;0.55;;;26.80;91.40;;;;;;5045833;28;20041;-53
2021/09/10 09:55:59;;;;;;;3.00;0.75;;;26.80;91.50;;;;;;5046189;28;20064;-47
2021/09/10 09:58:28;;;;;;;2.70;0.50;;;26.80;91.40;;;;;;5045625;28;20072;-48
2021/09/10 10:00:55;;;;;;;0.90;0.50;;;26.80;91.40;;;;;;5045734;28;20037;-57
2021/09/10 10:03:22;;;;;;;2.30;0.45;;;26.80;91.20;;;;;;5045815;28;20087;-50
2021/09/10 10:06:03;;;;;;;1.77;0.50;;;26.70;90.90;;;;;;5045379;28;20033;-54
2021/09/10 10:08:52;;;;;;;1.27;0.50;;;26.80;91.00;;;;;;5045688;28;20033;-51
2021/09/10 10:11:20;;;;;;;1.55;0.63;;;26.70;90.70;;;;;;5044696;28;20021;-56
2021/09/10 10:13:54;;;;;;;4.57;0.63;;;26.70;90.70;;;;;;5045888;28;20080;-50
2021/09/10 10:16:34;;;;;;;0.80;0.38;;;26.70;90.70;;;;;;5045316;28;20425;-50
2021/09/10 10:19:01;;;;;;;1.80;0.50;;;26.70;90.50;;;;;;5045376;28;20029;-50
2021/09/10 10:21:51;;;;;;;2.70;0.45;;;26.70;90.30;;;;;;5045252;28;20245;-51
2021/09/10 10:24:37;;;;;;;0.85;0.30;;;26.60;90.20;;;;;;5045399;28;20029;-50
2021/09/10 10:27:38;;;;;;;1.98;0.60;;;26.60;90.30;;;;;;5045400;28;20029;-57
2021/09/10 10:30:20;;;;;;;10.20;0.60;;;26.60;90.30;;;;;;5045277;28;20033;-50
2021/09/10 10:32:54;;;;;;;1.60;0.53;;;26.60;90.40;;;;;;5045516;28;20022;-51
2021/09/10 10:35:39;;;;;;;1.60;0.63;;;26.60;90.20;;;;;;5045007;28;20264;-51
2021/09/10 10:38:11;;;;;;;1.25;0.70;;;26.50;90.20;;;;;;5044792;28;20048;-50
2021/09/10 10:40:44;;;;;;;3.60;0.60;;;26.60;90.20;;;;;;5044861;28;20021;-55
2021/09/10 10:43:12;;;;;;;2.67;1.13;;;26.60;90.30;;;;;;5044816;28;20025;-48
2021/09/10 10:45:42;;;;;;;1.23;0.77;;;26.60;90.10;;;;;;5044413;28;20032;-50
2021/09/10 10:48:32;;;;;;;1.38;0.73;;;26.60;90.20;;;;;;5044940;28;20071;-49
2021/09/10 10:51:03;;;;;;;8.30;1.00;;;26.60;90.20;;;;;;5044483;28;20044;-53
2021/09/10 10:53:52;;;;;;;1.90;1.00;;;26.70;90.30;;;;;;5044651;28;20360;-53
2021/09/10 10:56:32;;;;;;;7.32;1.30;;;26.70;90.40;;;;;;5044805;28;20021;-50
2021/09/10 10:59:14;;;;;;;2.88;1.30;;;26.70;90.40;;;;;;5044648;28;20249;-47
2021/09/10 11:02:19;;;;;;;3.00;1.02;;;26.80;90.50;;;;;;5044854;28;20040;-50
2021/09/10 11:05:13;;;;;;;4.43;1.85;;;26.70;90.60;;;;;;5044608;28;20078;-53
2021/09/10 11:07:39;;;;;;;3.95;1.17;;;26.80;90.80;;;;;;5044087;28;20049;-56
2021/09/10 11:10:20;;;;;;;4.38;1.10;;;26.80;90.70;;;;;;5044382;28;20033;-50
2021/09/10 11:12:54;;;;;;;6.53;1.23;;;26.80;90.70;;;;;;5044515;28;20048;-50
2021/09/10 11:15:24;;;;;;;2.97;1.30;;;26.80;90.80;;;;;;5043181;28;20032;-50
2021/09/10 11:17:58;;;;;;;4.03;1.65;;;26.80;90.90;;;;;;5044453;28;20201;-50
2021/09/10 11:20:28;;;;;;;2.92;1.30;;;26.80;90.90;;;;;;5043940;28;20029;-52
2021/09/10 11:22:55;;;;;;;3.58;1.40;;;26.80;91.00;;;;;;5043669;28;20017;-47
2021/09/10 11:25:22;;;;;;;4.05;1.27;;;26.80;90.90;;;;;;5044076;28;20028;-47
2021/09/10 11:27:48;;;;;;;3.58;1.10;;;26.90;90.90;;;;;;5044118;28;20097;-49
2021/09/10 11:30:15;;;;;;;5.05;1.50;;;26.90;90.80;;;;;;5044020;28;20213;-54
2021/09/10 11:32:42;;;;;;;4.43;1.58;;;27.00;90.80;;;;;;5044490;28;20026;-47
2021/09/10 11:35:23;;;;;;;2.80;1.17;;;27.00;90.70;;;;;;5043970;28;20025;-56
2021/09/10 11:37:54;;;;;;;4.05;1.23;;;27.00;90.70;;;;;;5043783;28;20088;-54
2021/09/10 11:40:32;;;;;;;4.03;1.48;;;27.10;90.60;;;;;;5044036;28;20055;-49
2021/09/10 11:43:07;;;;;;;5.35;1.40;;;27.10;90.50;;;;;;5044332;28;20025;-55
2021/09/10 11:45:48;;;;;;;3.17;1.10;;;27.10;90.50;;;;;;5043515;28;20037;-49
2021/09/10 11:48:23;;;;;;;2.35;1.10;;;27.10;90.40;;;;;;5043763;28;20009;-48
2021/09/10 11:50:53;;;;;;;2.83;1.20;;;27.20;90.30;;;;;;5043508;28;20033;-50
2021/09/10 11:53:34;;;;;;;2.72;1.13;;;27.20;90.30;;;;;;5044016;28;20049;-53
2021/09/10 11:56:11;;;;;;;3.03;1.10;;;27.20;90.00;;;;;;5044050;28;20057;-52
2021/09/10 11:58:44;;;;;;;3.28;1.10;;;27.20;90.10;;;;;;5043599;28;20030;-47
2021/09/10 12:01:25;;;;;;;5.45;1.52;;;27.20;90.10;;;;;;5044003;28;20018;-53
2021/09/10 12:04:03;;;;;;;2.65;1.10;;;27.10;90.00;;;;;;5043891;28;20178;-50
2021/09/10 12:06:46;;;;;;;3.20;1.00;;;27.20;90.00;;;;;;5043609;28;20041;-52
2021/09/10 12:09:21;;;;;;;2.00;0.90;;;27.20;90.10;;;;;;5043766;28;20029;-54
2021/09/10 12:12:08;;;;;;;3.00;1.10;;;27.20;90.30;;;;;;5044170;28;20025;-51
2021/09/10 12:14:38;;;;;;;2.70;1.00;;;27.20;90.00;;;;;;5043984;28;20048;-50
2021/09/10 12:17:16;;;;;;;8.57;1.42;;;27.20;90.10;;;;;;5044041;28;20021;-51
2021/09/10 12:19:47;;;;;;;2.40;1.10;;;27.20;90.10;;;;;;5043417;28;20017;-53
2021/09/10 12:22:48;;;;;;;5.28;1.20;;;27.20;90.20;;;;;;5043637;28;20071;-54
2021/09/10 12:25:18;;;;;;;4.50;1.48;;;27.20;90.20;;;;;;5043667;28;20025;-53
2021/09/10 12:27:45;;;;;;;2.78;1.13;;;27.20;90.20;;;;;;5044389;28;20306;-51
2021/09/10 12:30:14;;;;;;;3.53;1.40;;;27.20;90.20;;;;;;5043886;28;20037;-52
2021/09/10 12:32:41;;;;;;;1.85;1.10;;;27.20;90.10;;;;;;5044216;28;20017;-49
2021/09/10 12:35:08;;;;;;;3.83;1.40;;;27.20;90.20;;;;;;5046077;28;20265;-53
2021/09/10 12:37:35;;;;;;;5.10;1.30;;;27.20;90.10;;;;;;5046918;28;20026;-56
2021/09/10 12:40:03;;;;;;;3.05;1.08;;;27.30;90.10;;;;;;5047081;28;20021;-48
2021/09/10 12:42:30;;;;;;;5.38;1.52;;;27.30;90.20;;;;;;5047657;28;20045;-55
2021/09/10 12:44:57;;;;;;;6.15;1.58;;;27.30;90.10;;;;;;5046896;28;20025;-52
2021/09/10 12:47:23;;;;;;;2.63;1.50;;;27.30;89.90;;;;;;5047117;28;20029;-53
2021/09/10 12:49:53;;;;;;;4.65;1.73;;;27.40;90.00;;;;;;5046911;28;20025;-55
2021/09/10 12:52:19;;;;;;;3.72;1.23;;;27.40;89.80;;;;;;5047610;28;20021;-53
2021/09/10 12:54:46;;;;;;;5.43;1.73;;;27.40;89.70;;;;;;5046793;28;20024;-49